sensor_id;sensor_type;location;lat;lon;timestamp;temperature;humidity
76967;DHT22;65904;52.278;20.972;2023-07-31T00:00:38;19.30;99.90
76967;DHT22;65904;52.278;20.972;2023-07-31T00:03:27;19.30;99.90
76967;DHT22;65904;52.278;20.972;2023-07-31T00:06:13;19.20;99.90
76967;DHT22;65904;52.278;20.972;2023-07-31T00:08:59;19.20;99.90
76967;DHT22;65904;52.278;20.972;2023-07-31T00:11:47;19.20;99.90
76967;DHT22;65904;52.278;20.972;2023-07-31T00:14:33;19.20;99.90
76967;DHT22;65904;52.278;20.972;2023-07-31T00:17:19;19.10;99.90
76967;DHT22;65904;52.278;20.972;2023-07-31T00:20:06;19.10;99.90
76967;DHT22;65904;52.278;20.972;2023-07-31T00:22:52;19.00;99.90
76967;DHT22;65904;52.278;20.972;2023-07-31T00:25:38;19.00;99.90
76967;DHT22;65904;52.278;20.972;2023-07-31T00:28:25;18.90;99.90
76967;DHT22;65904;52.278;20.972;2023-07-31T00:31:13;18.90;99.90
76967;DHT22;65904;52.278;20.972;2023-07-31T00:33:59;18.90;99.90
76967;DHT22;65904;52.278;20.972;2023-07-31T00:36:45;18.80;99.90
76967;DHT22;65904;52.278;20.972;2023-07-31T00:39:34;18.80;99.90
76967;DHT22;65904;52.278;20.972;2023-07-31T00:42:21;18.80;99.90
76967;DHT22;65904;52.278;20.972;2023-07-31T00:45:09;18.80;99.90
76967;DHT22;65904;52.278;20.972;2023-07-31T00:47:55;18.70;99.90
76967;DHT22;65904;52.278;20.972;2023-07-31T00:50:42;18.70;99.90
76967;DHT22;65904;52.278;20.972;2023-07-31T00:53:28;18.70;99.90
76967;DHT22;65904;52.278;20.972;2023-07-31T00:56:15;18.70;99.90
76967;DHT22;65904;52.278;20.972;2023-07-31T00:59:02;18.70;99.90
76967;DHT22;65904;52.278;20.972;2023-07-31T01:01:49;18.70;99.90
76967;DHT22;65904;52.278;20.972;2023-07-31T01:04:36;18.60;99.90
76967;DHT22;65904;52.278;20.972;2023-07-31T01:07:27;18.60;99.90
76967;DHT22;65904;52.278;20.972;2023-07-31T01:10:20;18.50;99.90
76967;DHT22;65904;52.278;20.972;2023-07-31T01:13:08;18.50;99.90
76967;DHT22;65904;52.278;20.972;2023-07-31T01:15:56;18.40;99.90
76967;DHT22;65904;52.278;20.972;2023-07-31T01:18:43;18.40;99.90
76967;DHT22;65904;52.278;20.972;2023-07-31T01:21:41;18.40;99.90
76967;DHT22;65904;52.278;20.972;2023-07-31T01:24:36;18.40;99.90
76967;DHT22;65904;52.278;20.972;2023-07-31T01:27:31;18.40;99.90
76967;DHT22;65904;52.278;20.972;2023-07-31T01:30:23;18.30;99.90
76967;DHT22;65904;52.278;20.972;2023-07-31T01:33:11;18.30;99.90
76967;DHT22;65904;52.278;20.972;2023-07-31T01:35:57;18.30;99.90
76967;DHT22;65904;52.278;20.972;2023-07-31T01:38:44;18.20;99.90
76967;DHT22;65904;52.278;20.972;2023-07-31T01:41:30;18.20;99.90
76967;DHT22;65904;52.278;20.972;2023-07-31T01:44:17;18.20;99.90
76967;DHT22;65904;52.278;20.972;2023-07-31T01:47:03;18.10;99.90
76967;DHT22;65904;52.278;20.972;2023-07-31T01:49:51;18.10;99.90
76967;DHT22;65904;52.278;20.972;2023-07-31T01:52:37;18.10;99.90
76967;DHT22;65904;52.278;20.972;2023-07-31T01:55:23;18.10;99.90
76967;DHT22;65904;52.278;20.972;2023-07-31T01:58:10;18.00;99.90
76967;DHT22;65904;52.278;20.972;2023-07-31T02:00:57;18.00;99.90
76967;DHT22;65904;52.278;20.972;2023-07-31T02:03:44;17.90;99.90
76967;DHT22;65904;52.278;20.972;2023-07-31T02:06:31;17.90;99.90
76967;DHT22;65904;52.278;20.972;2023-07-31T02:09:17;17.90;99.90
76967;DHT22;65904;52.278;20.972;2023-07-31T02:12:03;17.90;99.90
76967;DHT22;65904;52.278;20.972;2023-07-31T02:14:50;17.80;99.90
76967;DHT22;65904;52.278;20.972;2023-07-31T02:17:37;17.80;99.90
76967;DHT22;65904;52.278;20.972;2023-07-31T02:20:24;17.80;99.90
76967;DHT22;65904;52.278;20.972;2023-07-31T02:23:10;17.70;99.90
76967;DHT22;65904;52.278;20.972;2023-07-31T02:25:56;17.70;99.90
76967;DHT22;65904;52.278;20.972;2023-07-31T02:28:42;17.70;99.90
76967;DHT22;65904;52.278;20.972;2023-07-31T02:31:29;17.70;99.90
76967;DHT22;65904;52.278;20.972;2023-07-31T02:34:17;17.70;99.90
76967;DHT22;65904;52.278;20.972;2023-07-31T02:37:03;17.70;99.90
76967;DHT22;65904;52.278;20.972;2023-07-31T02:39:49;17.60;99.90
76967;DHT22;65904;52.278;20.972;2023-07-31T02:42:35;17.70;99.90
76967;DHT22;65904;52.278;20.972;2023-07-31T02:45:21;17.60;99.90
76967;DHT22;65904;52.278;20.972;2023-07-31T02:48:07;17.50;99.90
76967;DHT22;65904;52.278;20.972;2023-07-31T02:50:55;17.50;99.90
76967;DHT22;65904;52.278;20.972;2023-07-31T02:53:41;17.50;99.90
76967;DHT22;65904;52.278;20.972;2023-07-31T02:56:27;17.60;99.90
76967;DHT22;65904;52.278;20.972;2023-07-31T02:59:13;17.60;99.90
76967;DHT22;65904;52.278;20.972;2023-07-31T03:02:00;17.60;99.90
76967;DHT22;65904;52.278;20.972;2023-07-31T03:04:46;17.60;99.90
76967;DHT22;65904;52.278;20.972;2023-07-31T03:07:34;17.60;99.90
76967;DHT22;65904;52.278;20.972;2023-07-31T03:10:20;17.60;99.90
76967;DHT22;65904;52.278;20.972;2023-07-31T03:13:06;17.70;99.90
76967;DHT22;65904;52.278;20.972;2023-07-31T03:15:53;17.70;99.90
76967;DHT22;65904;52.278;20.972;2023-07-31T03:18:39;17.70;99.90
76967;DHT22;65904;52.278;20.972;2023-07-31T03:21:26;17.70;99.90
76967;DHT22;65904;52.278;20.972;2023-07-31T03:24:13;17.70;99.90
76967;DHT22;65904;52.278;20.972;2023-07-31T03:27:00;17.70;99.90
76967;DHT22;65904;52.278;20.972;2023-07-31T03:29:46;17.80;99.90
76967;DHT22;65904;52.278;20.972;2023-07-31T03:32:32;17.70;99.90
76967;DHT22;65904;52.278;20.972;2023-07-31T03:35:18;17.80;99.90
76967;DHT22;65904;52.278;20.972;2023-07-31T03:38:04;17.80;99.90
76967;DHT22;65904;52.278;20.972;2023-07-31T03:40:52;17.80;99.90
76967;DHT22;65904;52.278;20.972;2023-07-31T03:43:38;17.80;99.90
76967;DHT22;65904;52.278;20.972;2023-07-31T03:46:25;17.70;99.90
76967;DHT22;65904;52.278;20.972;2023-07-31T03:49:12;17.80;99.90
76967;DHT22;65904;52.278;20.972;2023-07-31T03:51:58;17.80;99.90
76967;DHT22;65904;52.278;20.972;2023-07-31T03:54:44;17.80;99.90
76967;DHT22;65904;52.278;20.972;2023-07-31T03:57:32;17.80;99.90
76967;DHT22;65904;52.278;20.972;2023-07-31T04:00:18;17.90;99.90
76967;DHT22;65904;52.278;20.972;2023-07-31T04:03:05;17.90;99.90
76967;DHT22;65904;52.278;20.972;2023-07-31T04:05:54;17.90;99.90
76967;DHT22;65904;52.278;20.972;2023-07-31T04:08:40;17.90;99.90
76967;DHT22;65904;52.278;20.972;2023-07-31T04:11:26;18.00;99.90
76967;DHT22;65904;52.278;20.972;2023-07-31T04:14:14;18.00;99.90
76967;DHT22;65904;52.278;20.972;2023-07-31T04:17:00;18.00;99.90
76967;DHT22;65904;52.278;20.972;2023-07-31T04:19:46;18.00;99.90
76967;DHT22;65904;52.278;20.972;2023-07-31T04:22:32;18.00;99.90
76967;DHT22;65904;52.278;20.972;2023-07-31T04:25:18;18.10;99.90
76967;DHT22;65904;52.278;20.972;2023-07-31T04:28:04;18.10;99.90
76967;DHT22;65904;52.278;20.972;2023-07-31T04:30:52;18.10;99.90
76967;DHT22;65904;52.278;20.972;2023-07-31T04:33:38;18.10;99.90
76967;DHT22;65904;52.278;20.972;2023-07-31T04:36:24;18.10;99.90
76967;DHT22;65904;52.278;20.972;2023-07-31T04:39:11;18.00;99.90
76967;DHT22;65904;52.278;20.972;2023-07-31T04:41:57;18.10;99.90
76967;DHT22;65904;52.278;20.972;2023-07-31T04:44:42;18.10;99.90
76967;DHT22;65904;52.278;20.972;2023-07-31T04:47:30;18.10;99.90
76967;DHT22;65904;52.278;20.972;2023-07-31T04:50:16;18.10;99.90
76967;DHT22;65904;52.278;20.972;2023-07-31T04:53:03;18.20;99.90
76967;DHT22;65904;52.278;20.972;2023-07-31T04:55:48;18.20;99.90
76967;DHT22;65904;52.278;20.972;2023-07-31T04:58:34;18.30;99.90
76967;DHT22;65904;52.278;20.972;2023-07-31T05:01:20;18.30;99.90
76967;DHT22;65904;52.278;20.972;2023-07-31T05:04:08;18.30;99.90
76967;DHT22;65904;52.278;20.972;2023-07-31T05:06:54;18.30;99.90
76967;DHT22;65904;52.278;20.972;2023-07-31T05:09:40;18.30;99.90
76967;DHT22;65904;52.278;20.972;2023-07-31T05:12:26;18.30;99.90
76967;DHT22;65904;52.278;20.972;2023-07-31T05:15:12;18.40;99.90
76967;DHT22;65904;52.278;20.972;2023-07-31T05:17:58;18.30;99.90
76967;DHT22;65904;52.278;20.972;2023-07-31T05:20:45;18.30;99.90
76967;DHT22;65904;52.278;20.972;2023-07-31T05:23:31;18.40;99.90
76967;DHT22;65904;52.278;20.972;2023-07-31T05:26:18;18.40;99.90
76967;DHT22;65904;52.278;20.972;2023-07-31T05:29:04;18.40;99.90
76967;DHT22;65904;52.278;20.972;2023-07-31T05:31:50;18.40;99.90
76967;DHT22;65904;52.278;20.972;2023-07-31T05:34:36;18.50;99.90
76967;DHT22;65904;52.278;20.972;2023-07-31T05:37:23;18.50;99.90
76967;DHT22;65904;52.278;20.972;2023-07-31T05:40:10;18.50;99.90
76967;DHT22;65904;52.278;20.972;2023-07-31T05:42:56;18.50;99.90
76967;DHT22;65904;52.278;20.972;2023-07-31T05:45:43;18.50;99.90
76967;DHT22;65904;52.278;20.972;2023-07-31T05:48:29;18.50;99.90
76967;DHT22;65904;52.278;20.972;2023-07-31T05:51:15;18.50;99.90
76967;DHT22;65904;52.278;20.972;2023-07-31T05:54:03;18.60;99.90
76967;DHT22;65904;52.278;20.972;2023-07-31T05:56:49;18.60;99.90
76967;DHT22;65904;52.278;20.972;2023-07-31T05:59:35;18.60;99.90
76967;DHT22;65904;52.278;20.972;2023-07-31T06:02:21;18.70;99.90
76967;DHT22;65904;52.278;20.972;2023-07-31T06:05:08;18.70;99.90
76967;DHT22;65904;52.278;20.972;2023-07-31T06:07:53;18.70;99.90
76967;DHT22;65904;52.278;20.972;2023-07-31T06:10:41;18.80;99.90
76967;DHT22;65904;52.278;20.972;2023-07-31T06:13:27;18.90;99.90
76967;DHT22;65904;52.278;20.972;2023-07-31T06:16:14;19.00;99.90
76967;DHT22;65904;52.278;20.972;2023-07-31T06:18:59;18.90;99.90
76967;DHT22;65904;52.278;20.972;2023-07-31T06:21:46;18.90;99.90
76967;DHT22;65904;52.278;20.972;2023-07-31T06:24:32;18.90;99.90
76967;DHT22;65904;52.278;20.972;2023-07-31T06:27:20;18.80;99.90
76967;DHT22;65904;52.278;20.972;2023-07-31T06:30:07;18.80;99.90
76967;DHT22;65904;52.278;20.972;2023-07-31T06:32:53;18.70;99.90
76967;DHT22;65904;52.278;20.972;2023-07-31T06:35:39;18.70;99.90
76967;DHT22;65904;52.278;20.972;2023-07-31T06:38:26;18.50;99.90
76967;DHT22;65904;52.278;20.972;2023-07-31T06:41:12;18.50;99.90
76967;DHT22;65904;52.278;20.972;2023-07-31T06:44:00;18.40;99.90
76967;DHT22;65904;52.278;20.972;2023-07-31T06:46:46;18.50;99.90
76967;DHT22;65904;52.278;20.972;2023-07-31T06:49:32;18.50;99.90
76967;DHT22;65904;52.278;20.972;2023-07-31T06:52:18;18.50;99.90
76967;DHT22;65904;52.278;20.972;2023-07-31T06:55:15;18.60;99.90
76967;DHT22;65904;52.278;20.972;2023-07-31T06:58:02;18.60;99.90
76967;DHT22;65904;52.278;20.972;2023-07-31T07:00:50;18.70;99.90
76967;DHT22;65904;52.278;20.972;2023-07-31T07:03:35;18.70;99.90
76967;DHT22;65904;52.278;20.972;2023-07-31T07:06:22;18.70;99.90
76967;DHT22;65904;52.278;20.972;2023-07-31T07:09:08;18.90;99.90
76967;DHT22;65904;52.278;20.972;2023-07-31T07:11:54;19.00;99.90
76967;DHT22;65904;52.278;20.972;2023-07-31T07:14:40;19.10;99.90
76967;DHT22;65904;52.278;20.972;2023-07-31T07:17:29;19.10;99.90
76967;DHT22;65904;52.278;20.972;2023-07-31T07:20:16;19.20;99.90
76967;DHT22;65904;52.278;20.972;2023-07-31T07:23:04;19.40;99.90
76967;DHT22;65904;52.278;20.972;2023-07-31T07:25:50;19.50;99.90
76967;DHT22;65904;52.278;20.972;2023-07-31T07:28:40;19.50;99.90
76967;DHT22;65904;52.278;20.972;2023-07-31T07:31:25;19.70;99.90
76967;DHT22;65904;52.278;20.972;2023-07-31T07:34:13;19.90;99.90
76967;DHT22;65904;52.278;20.972;2023-07-31T07:36:59;20.10;99.90
76967;DHT22;65904;52.278;20.972;2023-07-31T07:39:45;20.30;99.90
76967;DHT22;65904;52.278;20.972;2023-07-31T07:42:31;20.50;99.90
76967;DHT22;65904;52.278;20.972;2023-07-31T07:45:18;20.70;99.90
76967;DHT22;65904;52.278;20.972;2023-07-31T07:48:04;20.90;99.90
76967;DHT22;65904;52.278;20.972;2023-07-31T07:50:51;21.00;99.90
76967;DHT22;65904;52.278;20.972;2023-07-31T07:53:38;21.10;99.90
76967;DHT22;65904;52.278;20.972;2023-07-31T07:56:26;21.10;99.90
76967;DHT22;65904;52.278;20.972;2023-07-31T07:59:12;21.10;99.90
76967;DHT22;65904;52.278;20.972;2023-07-31T08:01:58;21.10;99.90
76967;DHT22;65904;52.278;20.972;2023-07-31T08:04:44;21.10;99.90
76967;DHT22;65904;52.278;20.972;2023-07-31T08:07:32;21.10;99.90
76967;DHT22;65904;52.278;20.972;2023-07-31T08:10:18;21.20;99.90
76967;DHT22;65904;52.278;20.972;2023-07-31T08:13:04;21.20;99.90
76967;DHT22;65904;52.278;20.972;2023-07-31T08:15:50;21.10;99.90
76967;DHT22;65904;52.278;20.972;2023-07-31T08:18:37;21.10;99.90
76967;DHT22;65904;52.278;20.972;2023-07-31T08:21:24;21.20;99.90
76967;DHT22;65904;52.278;20.972;2023-07-31T08:24:12;21.20;99.90
76967;DHT22;65904;52.278;20.972;2023-07-31T08:26:58;21.40;99.90
76967;DHT22;65904;52.278;20.972;2023-07-31T08:29:44;21.50;99.90
76967;DHT22;65904;52.278;20.972;2023-07-31T08:32:30;21.60;99.90
76967;DHT22;65904;52.278;20.972;2023-07-31T08:35:17;21.80;99.90
76967;DHT22;65904;52.278;20.972;2023-07-31T08:38:03;22.00;99.90
76967;DHT22;65904;52.278;20.972;2023-07-31T08:40:51;21.90;99.90
76967;DHT22;65904;52.278;20.972;2023-07-31T08:43:38;21.90;99.90
76967;DHT22;65904;52.278;20.972;2023-07-31T08:46:26;21.90;99.90
76967;DHT22;65904;52.278;20.972;2023-07-31T08:49:12;22.00;99.90
76967;DHT22;65904;52.278;20.972;2023-07-31T08:51:59;22.10;99.90
76967;DHT22;65904;52.278;20.972;2023-07-31T08:54:45;22.40;99.90
76967;DHT22;65904;52.278;20.972;2023-07-31T08:57:35;22.40;99.90
76967;DHT22;65904;52.278;20.972;2023-07-31T09:00:21;22.50;99.90
76967;DHT22;65904;52.278;20.972;2023-07-31T09:03:11;22.70;99.90
76967;DHT22;65904;52.278;20.972;2023-07-31T09:05:58;22.60;99.90
76967;DHT22;65904;52.278;20.972;2023-07-31T09:08:45;22.70;99.90
76967;DHT22;65904;52.278;20.972;2023-07-31T09:11:32;22.80;99.90
76967;DHT22;65904;52.278;20.972;2023-07-31T09:14:21;23.10;99.90
76967;DHT22;65904;52.278;20.972;2023-07-31T09:17:07;23.30;99.90
76967;DHT22;65904;52.278;20.972;2023-07-31T09:19:53;23.40;99.90
76967;DHT22;65904;52.278;20.972;2023-07-31T09:22:39;23.80;99.90
76967;DHT22;65904;52.278;20.972;2023-07-31T09:25:26;24.20;99.90
76967;DHT22;65904;52.278;20.972;2023-07-31T09:28:12;24.90;99.90
76967;DHT22;65904;52.278;20.972;2023-07-31T09:31:00;25.40;99.90
76967;DHT22;65904;52.278;20.972;2023-07-31T09:33:54;25.70;99.90
76967;DHT22;65904;52.278;20.972;2023-07-31T09:36:42;25.80;99.90
76967;DHT22;65904;52.278;20.972;2023-07-31T09:39:29;25.80;99.90
76967;DHT22;65904;52.278;20.972;2023-07-31T09:42:25;25.50;99.90
76967;DHT22;65904;52.278;20.972;2023-07-31T09:45:14;25.60;99.90
76967;DHT22;65904;52.278;20.972;2023-07-31T09:48:02;25.90;99.90
76967;DHT22;65904;52.278;20.972;2023-07-31T09:50:49;25.50;99.90
76967;DHT22;65904;52.278;20.972;2023-07-31T09:53:35;25.10;99.90
76967;DHT22;65904;52.278;20.972;2023-07-31T09:56:21;25.00;99.90
76967;DHT22;65904;52.278;20.972;2023-07-31T09:59:11;25.10;99.90
76967;DHT22;65904;52.278;20.972;2023-07-31T10:01:57;25.20;99.90
76967;DHT22;65904;52.278;20.972;2023-07-31T10:04:45;25.30;99.90
76967;DHT22;65904;52.278;20.972;2023-07-31T10:07:36;25.30;99.90
76967;DHT22;65904;52.278;20.972;2023-07-31T10:10:23;25.60;99.90
76967;DHT22;65904;52.278;20.972;2023-07-31T10:13:11;25.80;99.90
76967;DHT22;65904;52.278;20.972;2023-07-31T10:15:59;25.70;99.90
76967;DHT22;65904;52.278;20.972;2023-07-31T10:18:46;25.50;99.90
76967;DHT22;65904;52.278;20.972;2023-07-31T10:21:34;25.50;99.90
76967;DHT22;65904;52.278;20.972;2023-07-31T10:24:22;25.50;99.90
76967;DHT22;65904;52.278;20.972;2023-07-31T10:27:10;25.10;99.90
76967;DHT22;65904;52.278;20.972;2023-07-31T10:29:57;25.20;99.90
76967;DHT22;65904;52.278;20.972;2023-07-31T10:32:45;25.40;99.90
76967;DHT22;65904;52.278;20.972;2023-07-31T10:35:33;25.50;99.90
76967;DHT22;65904;52.278;20.972;2023-07-31T10:38:20;25.70;99.90
76967;DHT22;65904;52.278;20.972;2023-07-31T10:41:09;25.60;99.90
76967;DHT22;65904;52.278;20.972;2023-07-31T10:43:58;25.90;99.90
76967;DHT22;65904;52.278;20.972;2023-07-31T10:46:45;25.90;99.90
76967;DHT22;65904;52.278;20.972;2023-07-31T10:49:32;26.10;99.90
76967;DHT22;65904;52.278;20.972;2023-07-31T10:52:21;26.20;99.60
76967;DHT22;65904;52.278;20.972;2023-07-31T10:55:24;26.30;99.10
76967;DHT22;65904;52.278;20.972;2023-07-31T10:58:11;26.90;97.80
76967;DHT22;65904;52.278;20.972;2023-07-31T11:00:59;27.00;96.00
76967;DHT22;65904;52.278;20.972;2023-07-31T11:03:47;27.10;96.20
76967;DHT22;65904;52.278;20.972;2023-07-31T11:06:36;26.90;96.60
76967;DHT22;65904;52.278;20.972;2023-07-31T11:09:22;27.00;98.80
76967;DHT22;65904;52.278;20.972;2023-07-31T11:12:10;27.60;97.30
76967;DHT22;65904;52.278;20.972;2023-07-31T11:14:57;28.30;93.70
76967;DHT22;65904;52.278;20.972;2023-07-31T11:17:43;29.10;93.40
76967;DHT22;65904;52.278;20.972;2023-07-31T11:20:29;28.70;91.60
76967;DHT22;65904;52.278;20.972;2023-07-31T11:23:17;28.60;90.60
76967;DHT22;65904;52.278;20.972;2023-07-31T11:26:05;28.50;90.20
76967;DHT22;65904;52.278;20.972;2023-07-31T11:28:52;28.90;90.30
76967;DHT22;65904;52.278;20.972;2023-07-31T11:31:42;28.80;89.00
76967;DHT22;65904;52.278;20.972;2023-07-31T11:34:28;28.50;88.70
76967;DHT22;65904;52.278;20.972;2023-07-31T11:37:15;28.40;89.40
76967;DHT22;65904;52.278;20.972;2023-07-31T11:40:01;28.10;89.90
76967;DHT22;65904;52.278;20.972;2023-07-31T11:42:48;27.70;90.50
76967;DHT22;65904;52.278;20.972;2023-07-31T11:45:35;27.70;89.60
76967;DHT22;65904;52.278;20.972;2023-07-31T11:48:23;27.90;90.00
76967;DHT22;65904;52.278;20.972;2023-07-31T11:51:12;27.90;86.70
76967;DHT22;65904;52.278;20.972;2023-07-31T11:54:01;28.30;88.40
76967;DHT22;65904;52.278;20.972;2023-07-31T11:56:47;28.10;87.60
76967;DHT22;65904;52.278;20.972;2023-07-31T11:59:34;28.20;88.50
76967;DHT22;65904;52.278;20.972;2023-07-31T12:02:22;28.00;88.20
76967;DHT22;65904;52.278;20.972;2023-07-31T12:05:11;27.60;88.20
76967;DHT22;65904;52.278;20.972;2023-07-31T12:07:58;27.00;89.20
76967;DHT22;65904;52.278;20.972;2023-07-31T12:10:44;26.60;90.50
76967;DHT22;65904;52.278;20.972;2023-07-31T12:13:32;26.50;91.40
76967;DHT22;65904;52.278;20.972;2023-07-31T12:16:20;26.40;91.90
76967;DHT22;65904;52.278;20.972;2023-07-31T12:19:08;26.50;92.00
76967;DHT22;65904;52.278;20.972;2023-07-31T12:21:54;26.40;92.20
76967;DHT22;65904;52.278;20.972;2023-07-31T12:24:42;26.00;92.90
76967;DHT22;65904;52.278;20.972;2023-07-31T12:27:33;25.80;93.00
76967;DHT22;65904;52.278;20.972;2023-07-31T12:30:29;25.70;93.50
76967;DHT22;65904;52.278;20.972;2023-07-31T12:33:18;25.50;93.60
76967;DHT22;65904;52.278;20.972;2023-07-31T12:36:08;25.60;94.30
76967;DHT22;65904;52.278;20.972;2023-07-31T12:38:55;25.40;94.60
76967;DHT22;65904;52.278;20.972;2023-07-31T12:41:43;25.20;95.30
76967;DHT22;65904;52.278;20.972;2023-07-31T12:44:30;25.10;94.90
76967;DHT22;65904;52.278;20.972;2023-07-31T12:47:16;25.00;96.00
76967;DHT22;65904;52.278;20.972;2023-07-31T12:50:02;25.00;95.60
76967;DHT22;65904;52.278;20.972;2023-07-31T12:52:50;25.30;95.40
76967;DHT22;65904;52.278;20.972;2023-07-31T12:55:35;25.90;95.10
76967;DHT22;65904;52.278;20.972;2023-07-31T12:58:22;26.80;93.80
76967;DHT22;65904;52.278;20.972;2023-07-31T13:01:08;27.80;93.20
76967;DHT22;65904;52.278;20.972;2023-07-31T13:03:54;27.90;91.50
76967;DHT22;65904;52.278;20.972;2023-07-31T13:06:40;27.80;91.60
76967;DHT22;65904;52.278;20.972;2023-07-31T13:09:28;27.80;91.90
76967;DHT22;65904;52.278;20.972;2023-07-31T13:12:14;28.40;91.70
76967;DHT22;65904;52.278;20.972;2023-07-31T13:15:00;29.30;89.10
76967;DHT22;65904;52.278;20.972;2023-07-31T13:17:46;29.90;88.60
76967;DHT22;65904;52.278;20.972;2023-07-31T13:20:32;30.70;83.10
76967;DHT22;65904;52.278;20.972;2023-07-31T13:23:18;31.30;79.60
76967;DHT22;65904;52.278;20.972;2023-07-31T13:26:06;31.20;75.70
76967;DHT22;65904;52.278;20.972;2023-07-31T13:28:52;30.80;74.40
76967;DHT22;65904;52.278;20.972;2023-07-31T13:31:38;29.90;76.00
76967;DHT22;65904;52.278;20.972;2023-07-31T13:34:24;29.20;79.20
76967;DHT22;65904;52.278;20.972;2023-07-31T13:37:10;28.60;78.40
76967;DHT22;65904;52.278;20.972;2023-07-31T13:39:56;27.50;78.80
76967;DHT22;65904;52.278;20.972;2023-07-31T13:42:43;26.60;82.10
76967;DHT22;65904;52.278;20.972;2023-07-31T13:45:31;26.60;83.10
76967;DHT22;65904;52.278;20.972;2023-07-31T13:48:18;27.00;81.70
76967;DHT22;65904;52.278;20.972;2023-07-31T13:51:04;27.60;79.70
76967;DHT22;65904;52.278;20.972;2023-07-31T13:53:50;27.60;79.00
76967;DHT22;65904;52.278;20.972;2023-07-31T13:56:36;27.60;79.20
76967;DHT22;65904;52.278;20.972;2023-07-31T13:59:24;27.40;79.30
76967;DHT22;65904;52.278;20.972;2023-07-31T14:02:10;27.20;79.40
76967;DHT22;65904;52.278;20.972;2023-07-31T14:04:57;27.40;79.30
76967;DHT22;65904;52.278;20.972;2023-07-31T14:07:43;27.80;78.80
76967;DHT22;65904;52.278;20.972;2023-07-31T14:10:29;27.60;78.30
76967;DHT22;65904;52.278;20.972;2023-07-31T14:13:16;27.50;79.40
76967;DHT22;65904;52.278;20.972;2023-07-31T14:16:03;27.00;79.50
76967;DHT22;65904;52.278;20.972;2023-07-31T14:18:50;26.60;81.80
76967;DHT22;65904;52.278;20.972;2023-07-31T14:21:38;26.30;82.20
76967;DHT22;65904;52.278;20.972;2023-07-31T14:24:24;25.80;84.50
76967;DHT22;65904;52.278;20.972;2023-07-31T14:27:10;26.00;85.70
76967;DHT22;65904;52.278;20.972;2023-07-31T14:29:56;26.20;85.30
76967;DHT22;65904;52.278;20.972;2023-07-31T14:32:44;26.10;85.20
76967;DHT22;65904;52.278;20.972;2023-07-31T14:35:30;26.10;85.10
76967;DHT22;65904;52.278;20.972;2023-07-31T14:38:16;26.10;86.90
76967;DHT22;65904;52.278;20.972;2023-07-31T14:41:03;26.10;86.20
76967;DHT22;65904;52.278;20.972;2023-07-31T14:43:49;26.40;87.30
76967;DHT22;65904;52.278;20.972;2023-07-31T14:46:34;26.50;85.50
76967;DHT22;65904;52.278;20.972;2023-07-31T14:49:22;26.80;85.70
76967;DHT22;65904;52.278;20.972;2023-07-31T14:52:08;27.50;84.50
76967;DHT22;65904;52.278;20.972;2023-07-31T14:54:54;28.10;82.30
76967;DHT22;65904;52.278;20.972;2023-07-31T14:57:40;28.10;82.10
76967;DHT22;65904;52.278;20.972;2023-07-31T15:00:27;27.80;81.50
76967;DHT22;65904;52.278;20.972;2023-07-31T15:03:12;27.40;82.20
76967;DHT22;65904;52.278;20.972;2023-07-31T15:06:00;27.10;84.00
76967;DHT22;65904;52.278;20.972;2023-07-31T15:08:46;26.60;85.10
76967;DHT22;65904;52.278;20.972;2023-07-31T15:11:32;26.30;86.20
76967;DHT22;65904;52.278;20.972;2023-07-31T15:14:18;26.10;88.70
76967;DHT22;65904;52.278;20.972;2023-07-31T15:17:04;25.90;89.80
76967;DHT22;65904;52.278;20.972;2023-07-31T15:19:50;25.60;90.10
76967;DHT22;65904;52.278;20.972;2023-07-31T15:22:38;25.50;90.20
76967;DHT22;65904;52.278;20.972;2023-07-31T15:25:24;25.40;90.60
76967;DHT22;65904;52.278;20.972;2023-07-31T15:28:10;25.40;91.00
76967;DHT22;65904;52.278;20.972;2023-07-31T15:30:56;25.30;91.20
76967;DHT22;65904;52.278;20.972;2023-07-31T15:33:43;25.10;91.60
76967;DHT22;65904;52.278;20.972;2023-07-31T15:36:31;25.20;91.90
76967;DHT22;65904;52.278;20.972;2023-07-31T15:39:19;25.20;91.70
76967;DHT22;65904;52.278;20.972;2023-07-31T15:42:05;25.30;92.60
76967;DHT22;65904;52.278;20.972;2023-07-31T15:44:54;25.30;92.40
76967;DHT22;65904;52.278;20.972;2023-07-31T15:47:40;25.20;92.00
76967;DHT22;65904;52.278;20.972;2023-07-31T15:50:26;25.10;92.30
76967;DHT22;65904;52.278;20.972;2023-07-31T15:53:12;25.10;93.00
76967;DHT22;65904;52.278;20.972;2023-07-31T15:56:00;25.20;92.60
76967;DHT22;65904;52.278;20.972;2023-07-31T15:58:46;25.20;92.60
76967;DHT22;65904;52.278;20.972;2023-07-31T16:01:32;25.10;93.00
76967;DHT22;65904;52.278;20.972;2023-07-31T16:04:18;25.10;92.90
76967;DHT22;65904;52.278;20.972;2023-07-31T16:07:04;25.10;93.40
76967;DHT22;65904;52.278;20.972;2023-07-31T16:09:50;24.80;93.30
76967;DHT22;65904;52.278;20.972;2023-07-31T16:12:38;24.60;93.60
76967;DHT22;65904;52.278;20.972;2023-07-31T16:15:24;24.60;94.20
76967;DHT22;65904;52.278;20.972;2023-07-31T16:18:10;24.50;94.50
76967;DHT22;65904;52.278;20.972;2023-07-31T16:20:56;24.50;94.60
76967;DHT22;65904;52.278;20.972;2023-07-31T16:23:43;24.50;95.20
76967;DHT22;65904;52.278;20.972;2023-07-31T16:26:30;24.50;95.10
76967;DHT22;65904;52.278;20.972;2023-07-31T16:29:18;24.50;95.60
76967;DHT22;65904;52.278;20.972;2023-07-31T16:32:04;24.50;96.00
76967;DHT22;65904;52.278;20.972;2023-07-31T16:34:50;24.50;96.00
76967;DHT22;65904;52.278;20.972;2023-07-31T16:37:37;24.40;96.20
76967;DHT22;65904;52.278;20.972;2023-07-31T16:40:23;24.30;96.20
76967;DHT22;65904;52.278;20.972;2023-07-31T16:43:09;24.20;96.70
76967;DHT22;65904;52.278;20.972;2023-07-31T16:45:57;24.20;96.90
76967;DHT22;65904;52.278;20.972;2023-07-31T16:48:42;24.60;97.10
76967;DHT22;65904;52.278;20.972;2023-07-31T16:51:29;24.80;96.90
76967;DHT22;65904;52.278;20.972;2023-07-31T16:54:15;24.70;96.90
76967;DHT22;65904;52.278;20.972;2023-07-31T16:57:01;24.60;97.10
76967;DHT22;65904;52.278;20.972;2023-07-31T16:59:47;24.40;97.90
76967;DHT22;65904;52.278;20.972;2023-07-31T17:02:34;24.20;97.80
76967;DHT22;65904;52.278;20.972;2023-07-31T17:05:21;24.00;98.50
76967;DHT22;65904;52.278;20.972;2023-07-31T17:08:08;23.90;98.60
76967;DHT22;65904;52.278;20.972;2023-07-31T17:10:54;23.70;98.90
76967;DHT22;65904;52.278;20.972;2023-07-31T17:13:41;23.60;99.30
76967;DHT22;65904;52.278;20.972;2023-07-31T17:16:27;23.50;99.80